sensor_id;sensor_type;location;lat;lon;timestamp;P1;durP1;ratioP1;P2;durP2;ratioP2
44558;SDS011;30270;40.238;18.256;2022-12-20T00:01:26;5.93;;;3.50;;
44558;SDS011;30270;40.238;18.256;2022-12-20T00:03:57;6.45;;;3.72;;
44558;SDS011;30270;40.238;18.256;2022-12-20T00:06:26;8.63;;;3.90;;
44558;SDS011;30270;40.238;18.256;2022-12-20T00:08:54;7.25;;;3.90;;
44558;SDS011;30270;40.238;18.256;2022-12-20T00:11:23;5.82;;;3.70;;
44558;SDS011;30270;40.238;18.256;2022-12-20T00:13:51;6.53;;;3.17;;
44558;SDS011;30270;40.238;18.256;2022-12-20T00:16:20;5.97;;;4.32;;
44558;SDS011;30270;40.238;18.256;2022-12-20T00:18:50;8.82;;;3.92;;
44558;SDS011;30270;40.238;18.256;2022-12-20T00:21:25;5.57;;;3.65;;
44558;SDS011;30270;40.238;18.256;2022-12-20T00:23:53;6.97;;;3.80;;
44558;SDS011;30270;40.238;18.256;2022-12-20T00:26:22;6.22;;;3.53;;
44558;SDS011;30270;40.238;18.256;2022-12-20T00:28:51;7.40;;;4.20;;
44558;SDS011;30270;40.238;18.256;2022-12-20T00:31:20;7.40;;;3.53;;
44558;SDS011;30270;40.238;18.256;2022-12-20T00:33:49;6.85;;;3.55;;
44558;SDS011;30270;40.238;18.256;2022-12-20T00:36:18;7.72;;;3.28;;
44558;SDS011;30270;40.238;18.256;2022-12-20T00:38:48;7.20;;;4.70;;
44558;SDS011;30270;40.238;18.256;2022-12-20T00:41:18;7.28;;;3.45;;
44558;SDS011;30270;40.238;18.256;2022-12-20T00:43:47;5.93;;;3.83;;
44558;SDS011;30270;40.238;18.256;2022-12-20T00:46:15;6.15;;;3.10;;
44558;SDS011;30270;40.238;18.256;2022-12-20T00:48:44;6.40;;;3.30;;
44558;SDS011;30270;40.238;18.256;2022-12-20T00:51:13;7.03;;;3.28;;
44558;SDS011;30270;40.238;18.256;2022-12-20T00:53:45;5.80;;;3.03;;
44558;SDS011;30270;40.238;18.256;2022-12-20T00:56:13;5.85;;;3.80;;
44558;SDS011;30270;40.238;18.256;2022-12-20T00:58:42;7.70;;;3.30;;
44558;SDS011;30270;40.238;18.256;2022-12-20T01:01:14;6.05;;;3.58;;
44558;SDS011;30270;40.238;18.256;2022-12-20T01:03:47;6.00;;;3.15;;
44558;SDS011;30270;40.238;18.256;2022-12-20T01:06:15;5.20;;;2.78;;
44558;SDS011;30270;40.238;18.256;2022-12-20T01:08:44;4.43;;;2.92;;
44558;SDS011;30270;40.238;18.256;2022-12-20T01:13:43;8.32;;;3.63;;
44558;SDS011;30270;40.238;18.256;2022-12-20T01:16:18;6.03;;;3.38;;
44558;SDS011;30270;40.238;18.256;2022-12-20T01:18:50;4.32;;;2.80;;
44558;SDS011;30270;40.238;18.256;2022-12-20T01:21:19;6.47;;;2.90;;
44558;SDS011;30270;40.238;18.256;2022-12-20T01:23:48;5.20;;;2.97;;
44558;SDS011;30270;40.238;18.256;2022-12-20T01:26:16;9.57;;;3.90;;
44558;SDS011;30270;40.238;18.256;2022-12-20T01:28:46;8.15;;;3.20;;
44558;SDS011;30270;40.238;18.256;2022-12-20T01:31:15;6.40;;;3.25;;
44558;SDS011;30270;40.238;18.256;2022-12-20T01:33:45;5.30;;;2.63;;
44558;SDS011;30270;40.238;18.256;2022-12-20T01:36:16;3.78;;;2.60;;
44558;SDS011;30270;40.238;18.256;2022-12-20T01:38:46;5.85;;;4.13;;
44558;SDS011;30270;40.238;18.256;2022-12-20T01:41:14;5.35;;;2.97;;
44558;SDS011;30270;40.238;18.256;2022-12-20T01:43:51;7.25;;;3.67;;
44558;SDS011;30270;40.238;18.256;2022-12-20T01:46:33;7.35;;;3.50;;
44558;SDS011;30270;40.238;18.256;2022-12-20T01:51:53;4.70;;;2.45;;
44558;SDS011;30270;40.238;18.256;2022-12-20T01:54:36;4.10;;;2.25;;
44558;SDS011;30270;40.238;18.256;2022-12-20T01:57:08;6.57;;;3.63;;
44558;SDS011;30270;40.238;18.256;2022-12-20T01:59:41;8.10;;;3.83;;
44558;SDS011;30270;40.238;18.256;2022-12-20T02:02:12;7.25;;;3.13;;
44558;SDS011;30270;40.238;18.256;2022-12-20T02:04:40;4.85;;;3.10;;
44558;SDS011;30270;40.238;18.256;2022-12-20T02:07:07;7.40;;;4.07;;
44558;SDS011;30270;40.238;18.256;2022-12-20T02:09:43;6.82;;;4.40;;
44558;SDS011;30270;40.238;18.256;2022-12-20T02:12:12;8.80;;;4.03;;
44558;SDS011;30270;40.238;18.256;2022-12-20T02:14:51;5.85;;;3.95;;
44558;SDS011;30270;40.238;18.256;2022-12-20T02:20:03;10.25;;;4.38;;
44558;SDS011;30270;40.238;18.256;2022-12-20T02:31:09;8.32;;;4.90;;
44558;SDS011;30270;40.238;18.256;2022-12-20T02:33:42;6.80;;;4.95;;
44558;SDS011;30270;40.238;18.256;2022-12-20T02:36:14;6.72;;;3.53;;
44558;SDS011;30270;40.238;18.256;2022-12-20T02:38:45;6.30;;;3.63;;
44558;SDS011;30270;40.238;18.256;2022-12-20T02:41:22;6.45;;;3.38;;
44558;SDS011;30270;40.238;18.256;2022-12-20T02:44:06;8.90;;;3.65;;
44558;SDS011;30270;40.238;18.256;2022-12-20T02:46:57;5.35;;;3.72;;
44558;SDS011;30270;40.238;18.256;2022-12-20T02:49:29;4.60;;;2.58;;
44558;SDS011;30270;40.238;18.256;2022-12-20T02:52:00;7.47;;;2.95;;
44558;SDS011;30270;40.238;18.256;2022-12-20T02:54:29;5.60;;;2.75;;
44558;SDS011;30270;40.238;18.256;2022-12-20T02:59:48;6.35;;;3.80;;
44558;SDS011;30270;40.238;18.256;2022-12-20T03:02:23;7.70;;;3.03;;
44558;SDS011;30270;40.238;18.256;2022-12-20T03:04:51;6.20;;;3.67;;
44558;SDS011;30270;40.238;18.256;2022-12-20T03:07:21;7.10;;;3.10;;
44558;SDS011;30270;40.238;18.256;2022-12-20T03:09:49;8.05;;;3.25;;
44558;SDS011;30270;40.238;18.256;2022-12-20T03:12:16;4.30;;;3.15;;
44558;SDS011;30270;40.238;18.256;2022-12-20T03:14:44;7.82;;;3.58;;
44558;SDS011;30270;40.238;18.256;2022-12-20T03:17:13;6.10;;;3.03;;
44558;SDS011;30270;40.238;18.256;2022-12-20T03:19:41;3.97;;;2.60;;
44558;SDS011;30270;40.238;18.256;2022-12-20T03:22:09;5.45;;;3.30;;
44558;SDS011;30270;40.238;18.256;2022-12-20T03:24:37;7.55;;;3.30;;
44558;SDS011;30270;40.238;18.256;2022-12-20T03:27:10;7.72;;;3.75;;
44558;SDS011;30270;40.238;18.256;2022-12-20T03:29:37;8.05;;;3.03;;
44558;SDS011;30270;40.238;18.256;2022-12-20T03:32:05;21.30;;;4.47;;
44558;SDS011;30270;40.238;18.256;2022-12-20T03:34:33;8.57;;;3.45;;
44558;SDS011;30270;40.238;18.256;2022-12-20T03:37:01;7.80;;;3.05;;
44558;SDS011;30270;40.238;18.256;2022-12-20T03:39:28;7.25;;;3.03;;
44558;SDS011;30270;40.238;18.256;2022-12-20T03:41:58;7.53;;;3.33;;
44558;SDS011;30270;40.238;18.256;2022-12-20T03:44:25;5.47;;;3.28;;
44558;SDS011;30270;40.238;18.256;2022-12-20T03:46:53;7.53;;;3.33;;
44558;SDS011;30270;40.238;18.256;2022-12-20T03:49:20;5.60;;;3.05;;
44558;SDS011;30270;40.238;18.256;2022-12-20T03:51:50;7.32;;;3.67;;
44558;SDS011;30270;40.238;18.256;2022-12-20T03:54:17;6.78;;;4.00;;
44558;SDS011;30270;40.238;18.256;2022-12-20T03:57:05;10.00;;;4.95;;
44558;SDS011;30270;40.238;18.256;2022-12-20T03:59:33;8.88;;;4.95;;
44558;SDS011;30270;40.238;18.256;2022-12-20T04:02:03;6.32;;;3.67;;
44558;SDS011;30270;40.238;18.256;2022-12-20T04:04:30;6.82;;;4.38;;
44558;SDS011;30270;40.238;18.256;2022-12-20T04:06:58;7.68;;;5.30;;
44558;SDS011;30270;40.238;18.256;2022-12-20T04:09:26;6.00;;;4.13;;
44558;SDS011;30270;40.238;18.256;2022-12-20T04:12:00;11.00;;;5.00;;
44558;SDS011;30270;40.238;18.256;2022-12-20T04:14:29;8.45;;;5.07;;
44558;SDS011;30270;40.238;18.256;2022-12-20T04:16:57;8.30;;;5.40;;
44558;SDS011;30270;40.238;18.256;2022-12-20T04:19:26;9.30;;;5.70;;
44558;SDS011;30270;40.238;18.256;2022-12-20T04:21:53;8.23;;;4.78;;
44558;SDS011;30270;40.238;18.256;2022-12-20T04:24:29;7.03;;;4.65;;
44558;SDS011;30270;40.238;18.256;2022-12-20T04:27:23;9.80;;;5.20;;
44558;SDS011;30270;40.238;18.256;2022-12-20T04:29:52;6.90;;;4.75;;
44558;SDS011;30270;40.238;18.256;2022-12-20T04:32:21;8.88;;;4.72;;
44558;SDS011;30270;40.238;18.256;2022-12-20T04:34:48;8.23;;;4.47;;
44558;SDS011;30270;40.238;18.256;2022-12-20T04:37:17;7.65;;;4.60;;
44558;SDS011;30270;40.238;18.256;2022-12-20T04:39:53;9.25;;;4.63;;
44558;SDS011;30270;40.238;18.256;2022-12-20T04:42:25;7.80;;;4.47;;
44558;SDS011;30270;40.238;18.256;2022-12-20T04:44:54;8.00;;;5.03;;
44558;SDS011;30270;40.238;18.256;2022-12-20T04:47:25;6.53;;;3.35;;
44558;SDS011;30270;40.238;18.256;2022-12-20T04:49:54;9.35;;;5.43;;
44558;SDS011;30270;40.238;18.256;2022-12-20T04:52:21;8.77;;;3.90;;
44558;SDS011;30270;40.238;18.256;2022-12-20T04:55:11;8.85;;;4.95;;
44558;SDS011;30270;40.238;18.256;2022-12-20T04:57:38;8.00;;;4.43;;
44558;SDS011;30270;40.238;18.256;2022-12-20T05:00:06;6.47;;;4.18;;
44558;SDS011;30270;40.238;18.256;2022-12-20T05:02:39;6.35;;;4.38;;
44558;SDS011;30270;40.238;18.256;2022-12-20T05:05:10;7.43;;;4.70;;
44558;SDS011;30270;40.238;18.256;2022-12-20T05:07:44;9.13;;;5.22;;
44558;SDS011;30270;40.238;18.256;2022-12-20T05:10:13;8.88;;;4.95;;
44558;SDS011;30270;40.238;18.256;2022-12-20T05:12:41;7.85;;;4.30;;
44558;SDS011;30270;40.238;18.256;2022-12-20T05:15:15;9.18;;;4.85;;
44558;SDS011;30270;40.238;18.256;2022-12-20T05:17:43;8.73;;;4.57;;
44558;SDS011;30270;40.238;18.256;2022-12-20T05:20:11;8.18;;;4.90;;
44558;SDS011;30270;40.238;18.256;2022-12-20T05:22:42;6.43;;;4.60;;
44558;SDS011;30270;40.238;18.256;2022-12-20T05:25:28;8.10;;;4.07;;
44558;SDS011;30270;40.238;18.256;2022-12-20T05:28:15;6.50;;;3.92;;
44558;SDS011;30270;40.238;18.256;2022-12-20T05:30:43;6.03;;;4.43;;
44558;SDS011;30270;40.238;18.256;2022-12-20T05:33:12;10.80;;;5.45;;
44558;SDS011;30270;40.238;18.256;2022-12-20T05:35:42;12.48;;;5.18;;
44558;SDS011;30270;40.238;18.256;2022-12-20T05:38:12;10.45;;;5.80;;
44558;SDS011;30270;40.238;18.256;2022-12-20T05:40:40;8.38;;;5.03;;
44558;SDS011;30270;40.238;18.256;2022-12-20T05:43:09;7.65;;;4.60;;
44558;SDS011;30270;40.238;18.256;2022-12-20T05:45:47;7.60;;;4.70;;
44558;SDS011;30270;40.238;18.256;2022-12-20T05:48:21;10.45;;;5.85;;
44558;SDS011;30270;40.238;18.256;2022-12-20T05:50:48;8.13;;;5.55;;
44558;SDS011;30270;40.238;18.256;2022-12-20T05:53:30;8.63;;;4.70;;
44558;SDS011;30270;40.238;18.256;2022-12-20T05:56:00;7.18;;;5.13;;
44558;SDS011;30270;40.238;18.256;2022-12-20T05:58:31;10.60;;;7.13;;
44558;SDS011;30270;40.238;18.256;2022-12-20T06:01:01;10.68;;;6.07;;
44558;SDS011;30270;40.238;18.256;2022-12-20T06:03:35;12.63;;;8.43;;
44558;SDS011;30270;40.238;18.256;2022-12-20T06:06:07;13.82;;;7.22;;
44558;SDS011;30270;40.238;18.256;2022-12-20T06:08:37;12.73;;;6.57;;
44558;SDS011;30270;40.238;18.256;2022-12-20T06:11:09;9.23;;;6.88;;
44558;SDS011;30270;40.238;18.256;2022-12-20T06:13:46;13.52;;;7.45;;
44558;SDS011;30270;40.238;18.256;2022-12-20T06:16:14;11.05;;;7.78;;
44558;SDS011;30270;40.238;18.256;2022-12-20T06:18:42;11.52;;;7.70;;
44558;SDS011;30270;40.238;18.256;2022-12-20T06:21:11;11.85;;;7.35;;
44558;SDS011;30270;40.238;18.256;2022-12-20T06:23:39;12.32;;;8.10;;
44558;SDS011;30270;40.238;18.256;2022-12-20T06:26:09;9.95;;;7.65;;
44558;SDS011;30270;40.238;18.256;2022-12-20T06:28:46;11.88;;;7.05;;
44558;SDS011;30270;40.238;18.256;2022-12-20T06:31:26;8.25;;;6.65;;
44558;SDS011;30270;40.238;18.256;2022-12-20T06:33:54;10.90;;;7.10;;
44558;SDS011;30270;40.238;18.256;2022-12-20T06:36:29;10.15;;;7.78;;
44558;SDS011;30270;40.238;18.256;2022-12-20T06:38:56;15.85;;;8.85;;
44558;SDS011;30270;40.238;18.256;2022-12-20T06:41:25;10.85;;;6.20;;
44558;SDS011;30270;40.238;18.256;2022-12-20T06:43:53;8.00;;;4.45;;
44558;SDS011;30270;40.238;18.256;2022-12-20T06:46:21;6.40;;;3.95;;
44558;SDS011;30270;40.238;18.256;2022-12-20T06:48:49;7.30;;;4.45;;
44558;SDS011;30270;40.238;18.256;2022-12-20T06:51:17;6.00;;;3.55;;
44558;SDS011;30270;40.238;18.256;2022-12-20T06:53:46;6.00;;;4.15;;
44558;SDS011;30270;40.238;18.256;2022-12-20T06:56:13;9.10;;;5.15;;
44558;SDS011;30270;40.238;18.256;2022-12-20T06:58:41;6.75;;;4.70;;
44558;SDS011;30270;40.238;18.256;2022-12-20T07:01:09;5.72;;;3.80;;
44558;SDS011;30270;40.238;18.256;2022-12-20T07:03:36;6.35;;;4.07;;
44558;SDS011;30270;40.238;18.256;2022-12-20T07:06:04;8.63;;;3.78;;
44558;SDS011;30270;40.238;18.256;2022-12-20T07:08:32;6.05;;;3.78;;
44558;SDS011;30270;40.238;18.256;2022-12-20T07:11:03;6.65;;;4.20;;
44558;SDS011;30270;40.238;18.256;2022-12-20T07:13:34;8.45;;;4.28;;
44558;SDS011;30270;40.238;18.256;2022-12-20T07:16:02;7.85;;;4.75;;
44558;SDS011;30270;40.238;18.256;2022-12-20T07:18:30;10.80;;;4.65;;
44558;SDS011;30270;40.238;18.256;2022-12-20T07:21:02;8.90;;;5.00;;
44558;SDS011;30270;40.238;18.256;2022-12-20T07:23:31;7.40;;;4.28;;
44558;SDS011;30270;40.238;18.256;2022-12-20T07:25:59;12.18;;;5.00;;
44558;SDS011;30270;40.238;18.256;2022-12-20T07:28:27;8.32;;;4.53;;
44558;SDS011;30270;40.238;18.256;2022-12-20T07:30:58;7.93;;;4.72;;
44558;SDS011;30270;40.238;18.256;2022-12-20T07:33:27;10.40;;;6.57;;
44558;SDS011;30270;40.238;18.256;2022-12-20T07:35:59;10.07;;;7.10;;
44558;SDS011;30270;40.238;18.256;2022-12-20T07:38:32;10.50;;;6.63;;
44558;SDS011;30270;40.238;18.256;2022-12-20T07:41:08;13.90;;;8.18;;
44558;SDS011;30270;40.238;18.256;2022-12-20T07:43:36;11.80;;;8.07;;
44558;SDS011;30270;40.238;18.256;2022-12-20T07:46:05;13.13;;;7.68;;
44558;SDS011;30270;40.238;18.256;2022-12-20T07:48:33;12.27;;;7.70;;
44558;SDS011;30270;40.238;18.256;2022-12-20T07:51:03;12.32;;;8.48;;
44558;SDS011;30270;40.238;18.256;2022-12-20T07:53:36;17.75;;;8.90;;
44558;SDS011;30270;40.238;18.256;2022-12-20T07:56:06;13.23;;;7.00;;
44558;SDS011;30270;40.238;18.256;2022-12-20T07:58:36;11.07;;;7.55;;
44558;SDS011;30270;40.238;18.256;2022-12-20T08:01:06;10.75;;;5.80;;
44558;SDS011;30270;40.238;18.256;2022-12-20T08:03:37;7.85;;;5.65;;
44558;SDS011;30270;40.238;18.256;2022-12-20T08:06:09;10.30;;;5.60;;
44558;SDS011;30270;40.238;18.256;2022-12-20T08:08:39;9.63;;;6.47;;
44558;SDS011;30270;40.238;18.256;2022-12-20T08:11:13;10.80;;;6.28;;
44558;SDS011;30270;40.238;18.256;2022-12-20T08:13:41;10.85;;;7.05;;
44558;SDS011;30270;40.238;18.256;2022-12-20T08:16:11;10.77;;;6.03;;
44558;SDS011;30270;40.238;18.256;2022-12-20T08:18:39;11.93;;;7.05;;
44558;SDS011;30270;40.238;18.256;2022-12-20T08:21:06;12.93;;;6.57;;
44558;SDS011;30270;40.238;18.256;2022-12-20T08:23:34;7.70;;;5.45;;
44558;SDS011;30270;40.238;18.256;2022-12-20T08:26:01;10.93;;;5.13;;
44558;SDS011;30270;40.238;18.256;2022-12-20T08:28:29;9.65;;;5.65;;
44558;SDS011;30270;40.238;18.256;2022-12-20T08:31:03;8.30;;;5.53;;
44558;SDS011;30270;40.238;18.256;2022-12-20T08:33:32;10.27;;;6.47;;
44558;SDS011;30270;40.238;18.256;2022-12-20T08:36:02;6.80;;;4.55;;
44558;SDS011;30270;40.238;18.256;2022-12-20T08:38:32;6.57;;;4.80;;
44558;SDS011;30270;40.238;18.256;2022-12-20T08:41:10;9.15;;;5.57;;
44558;SDS011;30270;40.238;18.256;2022-12-20T08:43:39;7.30;;;4.38;;
44558;SDS011;30270;40.238;18.256;2022-12-20T08:46:08;9.50;;;4.38;;
44558;SDS011;30270;40.238;18.256;2022-12-20T08:48:38;10.15;;;6.28;;
44558;SDS011;30270;40.238;18.256;2022-12-20T08:51:07;5.93;;;4.20;;
44558;SDS011;30270;40.238;18.256;2022-12-20T08:53:36;9.52;;;5.78;;
44558;SDS011;30270;40.238;18.256;2022-12-20T08:56:05;10.35;;;6.45;;
44558;SDS011;30270;40.238;18.256;2022-12-20T08:58:35;10.30;;;5.38;;
44558;SDS011;30270;40.238;18.256;2022-12-20T09:01:05;7.40;;;4.97;;
44558;SDS011;30270;40.238;18.256;2022-12-20T09:03:34;8.57;;;5.97;;
44558;SDS011;30270;40.238;18.256;2022-12-20T09:06:10;7.88;;;4.85;;
44558;SDS011;30270;40.238;18.256;2022-12-20T09:08:40;9.40;;;5.70;;
44558;SDS011;30270;40.238;18.256;2022-12-20T09:11:09;8.40;;;5.82;;
44558;SDS011;30270;40.238;18.256;2022-12-20T09:13:42;8.07;;;5.13;;
44558;SDS011;30270;40.238;18.256;2022-12-20T09:16:12;6.95;;;4.85;;
44558;SDS011;30270;40.238;18.256;2022-12-20T09:18:41;7.75;;;5.63;;
44558;SDS011;30270;40.238;18.256;2022-12-20T09:21:09;6.75;;;4.50;;
44558;SDS011;30270;40.238;18.256;2022-12-20T09:23:38;10.52;;;5.78;;
44558;SDS011;30270;40.238;18.256;2022-12-20T09:26:07;14.68;;;6.32;;
44558;SDS011;30270;40.238;18.256;2022-12-20T09:28:38;10.18;;;5.72;;
44558;SDS011;30270;40.238;18.256;2022-12-20T09:31:07;9.93;;;6.13;;
44558;SDS011;30270;40.238;18.256;2022-12-20T09:33:38;7.82;;;4.82;;
44558;SDS011;30270;40.238;18.256;2022-12-20T09:36:06;9.85;;;5.30;;
44558;SDS011;30270;40.238;18.256;2022-12-20T09:38:37;9.25;;;5.65;;
44558;SDS011;30270;40.238;18.256;2022-12-20T09:41:05;9.75;;;4.55;;
44558;SDS011;30270;40.238;18.256;2022-12-20T09:43:34;10.10;;;4.53;;
44558;SDS011;30270;40.238;18.256;2022-12-20T09:46:03;11.60;;;6.30;;
44558;SDS011;30270;40.238;18.256;2022-12-20T09:48:31;10.18;;;5.55;;
44558;SDS011;30270;40.238;18.256;2022-12-20T09:54:22;8.95;;;5.07;;
44558;SDS011;30270;40.238;18.256;2022-12-20T09:59:51;14.60;;;7.22;;
44558;SDS011;30270;40.238;18.256;2022-12-20T10:02:24;9.45;;;6.03;;
44558;SDS011;30270;40.238;18.256;2022-12-20T10:08:41;13.60;;;6.55;;
44558;SDS011;30270;40.238;18.256;2022-12-20T10:11:39;6.35;;;3.95;;
44558;SDS011;30270;40.238;18.256;2022-12-20T10:17:06;8.95;;;3.65;;
44558;SDS011;30270;40.238;18.256;2022-12-20T10:20:08;4.82;;;1.70;;
44558;SDS011;30270;40.238;18.256;2022-12-20T10:25:41;3.08;;;1.60;;
44558;SDS011;30270;40.238;18.256;2022-12-20T10:28:11;3.60;;;2.20;;
44558;SDS011;30270;40.238;18.256;2022-12-20T10:30:42;4.93;;;2.35;;
44558;SDS011;30270;40.238;18.256;2022-12-20T10:33:20;4.03;;;1.75;;
44558;SDS011;30270;40.238;18.256;2022-12-20T10:35:49;3.58;;;2.13;;
44558;SDS011;30270;40.238;18.256;2022-12-20T10:38:18;3.28;;;1.90;;
44558;SDS011;30270;40.238;18.256;2022-12-20T10:40:47;5.03;;;2.70;;
44558;SDS011;30270;40.238;18.256;2022-12-20T10:46:34;3.58;;;1.90;;
44558;SDS011;30270;40.238;18.256;2022-12-20T10:49:26;4.97;;;2.10;;
44558;SDS011;30270;40.238;18.256;2022-12-20T10:52:01;4.57;;;2.00;;
44558;SDS011;30270;40.238;18.256;2022-12-20T10:54:38;2.80;;;1.90;;
44558;SDS011;30270;40.238;18.256;2022-12-20T10:57:24;3.55;;;2.10;;
44558;SDS011;30270;40.238;18.256;2022-12-20T10:59:55;7.90;;;3.67;;
44558;SDS011;30270;40.238;18.256;2022-12-20T11:02:31;5.60;;;2.55;;
44558;SDS011;30270;40.238;18.256;2022-12-20T11:07:53;5.35;;;2.65;;
44558;SDS011;30270;40.238;18.256;2022-12-20T11:11:13;5.03;;;2.80;;
44558;SDS011;30270;40.238;18.256;2022-12-20T11:13:49;5.07;;;2.60;;
44558;SDS011;30270;40.238;18.256;2022-12-20T11:16:37;4.90;;;2.70;;
44558;SDS011;30270;40.238;18.256;2022-12-20T11:24:34;4.95;;;2.58;;
44558;SDS011;30270;40.238;18.256;2022-12-20T11:27:29;4.70;;;2.35;;
44558;SDS011;30270;40.238;18.256;2022-12-20T11:30:11;3.22;;;1.85;;
44558;SDS011;30270;40.238;18.256;2022-12-20T11:35:54;7.30;;;3.45;;
44558;SDS011;30270;40.238;18.256;2022-12-20T11:42:09;6.80;;;2.25;;
44558;SDS011;30270;40.238;18.256;2022-12-20T11:47:33;5.33;;;2.33;;
44558;SDS011;30270;40.238;18.256;2022-12-20T11:50:36;4.00;;;2.60;;
44558;SDS011;30270;40.238;18.256;2022-12-20T11:55:47;4.45;;;2.55;;
44558;SDS011;30270;40.238;18.256;2022-12-20T11:58:23;3.60;;;2.30;;
44558;SDS011;30270;40.238;18.256;2022-12-20T12:00:56;4.47;;;2.05;;
44558;SDS011;30270;40.238;18.256;2022-12-20T12:03:33;4.03;;;2.70;;
44558;SDS011;30270;40.238;18.256;2022-12-20T12:06:05;4.13;;;2.00;;
44558;SDS011;30270;40.238;18.256;2022-12-20T12:11:17;3.03;;;1.95;;
44558;SDS011;30270;40.238;18.256;2022-12-20T12:14:05;3.47;;;2.10;;
44558;SDS011;30270;40.238;18.256;2022-12-20T12:16:41;4.82;;;2.47;;
44558;SDS011;30270;40.238;18.256;2022-12-20T12:19:13;4.75;;;2.65;;
44558;SDS011;30270;40.238;18.256;2022-12-20T12:26:55;3.63;;;2.10;;
44558;SDS011;30270;40.238;18.256;2022-12-20T12:29:25;5.35;;;2.55;;
44558;SDS011;30270;40.238;18.256;2022-12-20T12:37:45;3.50;;;2.30;;
44558;SDS011;30270;40.238;18.256;2022-12-20T12:46:24;3.72;;;2.10;;
44558;SDS011;30270;40.238;18.256;2022-12-20T12:51:41;3.90;;;2.40;;
44558;SDS011;30270;40.238;18.256;2022-12-20T12:54:50;3.78;;;2.72;;
44558;SDS011;30270;40.238;18.256;2022-12-20T12:59:46;4.00;;;2.28;;
44558;SDS011;30270;40.238;18.256;2022-12-20T13:17:55;6.20;;;2.30;;
44558;SDS011;30270;40.238;18.256;2022-12-20T13:20:28;2.88;;;2.03;;
44558;SDS011;30270;40.238;18.256;2022-12-20T13:23:29;5.40;;;3.10;;
44558;SDS011;30270;40.238;18.256;2022-12-20T13:25:50;3.53;;;2.40;;
44558;SDS011;30270;40.238;18.256;2022-12-20T13:33:41;4.70;;;2.60;;
44558;SDS011;30270;40.238;18.256;2022-12-20T13:43:50;4.78;;;2.70;;
44558;SDS011;30270;40.238;18.256;2022-12-20T13:46:21;3.13;;;2.17;;
44558;SDS011;30270;40.238;18.256;2022-12-20T13:49:15;5.07;;;2.85;;
44558;SDS011;30270;40.238;18.256;2022-12-20T13:51:48;3.33;;;2.03;;
44558;SDS011;30270;40.238;18.256;2022-12-20T13:54:33;6.28;;;2.33;;
44558;SDS011;30270;40.238;18.256;2022-12-20T13:57:07;7.57;;;3.53;;
44558;SDS011;30270;40.238;18.256;2022-12-20T13:59:42;6.05;;;3.60;;
44558;SDS011;30270;40.238;18.256;2022-12-20T14:02:29;8.85;;;3.55;;
44558;SDS011;30270;40.238;18.256;2022-12-20T14:05:04;7.65;;;5.05;;
44558;SDS011;30270;40.238;18.256;2022-12-20T14:07:36;8.57;;;4.10;;
44558;SDS011;30270;40.238;18.256;2022-12-20T14:10:15;4.40;;;2.45;;
44558;SDS011;30270;40.238;18.256;2022-12-20T14:12:48;5.22;;;2.97;;
44558;SDS011;30270;40.238;18.256;2022-12-20T14:15:21;7.90;;;3.05;;
44558;SDS011;30270;40.238;18.256;2022-12-20T14:17:50;3.80;;;2.33;;
44558;SDS011;30270;40.238;18.256;2022-12-20T14:25:49;8.50;;;3.40;;
44558;SDS011;30270;40.238;18.256;2022-12-20T14:28:26;5.13;;;2.80;;
44558;SDS011;30270;40.238;18.256;2022-12-20T14:34:05;7.80;;;4.95;;
44558;SDS011;30270;40.238;18.256;2022-12-20T14:37:16;9.18;;;4.80;;
44558;SDS011;30270;40.238;18.256;2022-12-20T14:42:36;5.72;;;3.78;;
44558;SDS011;30270;40.238;18.256;2022-12-20T14:47:36;6.00;;;4.03;;
44558;SDS011;30270;40.238;18.256;2022-12-20T14:50:26;7.05;;;4.20;;
44558;SDS011;30270;40.238;18.256;2022-12-20T14:52:57;9.25;;;4.93;;
44558;SDS011;30270;40.238;18.256;2022-12-20T14:55:33;7.30;;;4.93;;
44558;SDS011;30270;40.238;18.256;2022-12-20T14:58:30;7.88;;;4.75;;
44558;SDS011;30270;40.238;18.256;2022-12-20T15:01:00;9.70;;;4.95;;
44558;SDS011;30270;40.238;18.256;2022-12-20T15:03:29;8.88;;;4.07;;
44558;SDS011;30270;40.238;18.256;2022-12-20T15:05:58;6.50;;;4.38;;
44558;SDS011;30270;40.238;18.256;2022-12-20T15:08:27;7.00;;;4.78;;
44558;SDS011;30270;40.238;18.256;2022-12-20T15:13:39;7.70;;;4.45;;
44558;SDS011;30270;40.238;18.256;2022-12-20T15:16:19;6.43;;;4.63;;
44558;SDS011;30270;40.238;18.256;2022-12-20T15:18:53;12.27;;;7.88;;
44558;SDS011;30270;40.238;18.256;2022-12-20T15:21:35;12.23;;;6.47;;
44558;SDS011;30270;40.238;18.256;2022-12-20T15:24:14;8.75;;;5.47;;
44558;SDS011;30270;40.238;18.256;2022-12-20T15:26:45;15.02;;;6.65;;
44558;SDS011;30270;40.238;18.256;2022-12-20T15:29:17;14.82;;;8.02;;
44558;SDS011;30270;40.238;18.256;2022-12-20T15:31:47;11.65;;;7.53;;
44558;SDS011;30270;40.238;18.256;2022-12-20T15:34:26;12.95;;;8.50;;
44558;SDS011;30270;40.238;18.256;2022-12-20T15:36:55;14.82;;;7.95;;
44558;SDS011;30270;40.238;18.256;2022-12-20T15:39:25;13.38;;;7.63;;
44558;SDS011;30270;40.238;18.256;2022-12-20T15:41:54;13.07;;;7.38;;
44558;SDS011;30270;40.238;18.256;2022-12-20T15:44:23;18.35;;;8.18;;
44558;SDS011;30270;40.238;18.256;2022-12-20T15:46:53;14.57;;;6.57;;
44558;SDS011;30270;40.238;18.256;2022-12-20T15:49:25;11.90;;;6.53;;
44558;SDS011;30270;40.238;18.256;2022-12-20T15:51:56;10.32;;;7.97;;
44558;SDS011;30270;40.238;18.256;2022-12-20T15:54:28;10.35;;;8.57;;
44558;SDS011;30270;40.238;18.256;2022-12-20T15:56:57;10.88;;;8.30;;
44558;SDS011;30270;40.238;18.256;2022-12-20T15:59:29;15.30;;;9.15;;
44558;SDS011;30270;40.238;18.256;2022-12-20T16:02:19;10.75;;;8.45;;
44558;SDS011;30270;40.238;18.256;2022-12-20T16:04:47;17.27;;;11.13;;
44558;SDS011;30270;40.238;18.256;2022-12-20T16:07:16;18.23;;;12.00;;
44558;SDS011;30270;40.238;18.256;2022-12-20T16:09:43;15.27;;;11.50;;
44558;SDS011;30270;40.238;18.256;2022-12-20T16:12:27;21.55;;;13.93;;
44558;SDS011;30270;40.238;18.256;2022-12-20T16:14:58;17.33;;;9.40;;
44558;SDS011;30270;40.238;18.256;2022-12-20T16:17:26;14.40;;;10.00;;
44558;SDS011;30270;40.238;18.256;2022-12-20T16:19:54;14.85;;;10.00;;
44558;SDS011;30270;40.238;18.256;2022-12-20T16:22:22;17.35;;;11.65;;
44558;SDS011;30270;40.238;18.256;2022-12-20T16:24:51;15.95;;;10.85;;
44558;SDS011;30270;40.238;18.256;2022-12-20T16:27:19;11.07;;;7.45;;
44558;SDS011;30270;40.238;18.256;2022-12-20T16:29:47;13.07;;;6.40;;
44558;SDS011;30270;40.238;18.256;2022-12-20T16:32:15;14.27;;;7.43;;
44558;SDS011;30270;40.238;18.256;2022-12-20T16:34:45;8.65;;;6.30;;
44558;SDS011;30270;40.238;18.256;2022-12-20T16:37:14;12.32;;;8.40;;
44558;SDS011;30270;40.238;18.256;2022-12-20T16:39:42;10.20;;;7.15;;
44558;SDS011;30270;40.238;18.256;2022-12-20T16:42:16;13.48;;;6.85;;
44558;SDS011;30270;40.238;18.256;2022-12-20T16:44:51;7.25;;;5.80;;
44558;SDS011;30270;40.238;18.256;2022-12-20T16:47:20;11.05;;;7.15;;
44558;SDS011;30270;40.238;18.256;2022-12-20T16:49:48;12.75;;;6.43;;
44558;SDS011;30270;40.238;18.256;2022-12-20T16:52:18;10.43;;;5.85;;
44558;SDS011;30270;40.238;18.256;2022-12-20T16:54:46;8.75;;;6.85;;
44558;SDS011;30270;40.238;18.256;2022-12-20T16:57:13;10.18;;;6.80;;
44558;SDS011;30270;40.238;18.256;2022-12-20T16:59:41;12.40;;;7.47;;
44558;SDS011;30270;40.238;18.256;2022-12-20T17:02:20;13.48;;;9.02;;
44558;SDS011;30270;40.238;18.256;2022-12-20T17:04:53;14.73;;;9.98;;
44558;SDS011;30270;40.238;18.256;2022-12-20T17:07:21;20.10;;;13.30;;
44558;SDS011;30270;40.238;18.256;2022-12-20T17:09:54;17.98;;;12.80;;